Time;durP1;ratioP1;P1;durP2;ratioP2;P2;SDS_P1;SDS_P2;PMS_P1;PMS_P2;Temp;Humidity;BMP_temperature;BMP_pressure;BME280_temperature;BME280_humidity;BME280_pressure;Samples;Min_cycle;Max_cycle;Signal;HPM_P1;HPM_P2
2022/04/15 00:01:24;;;;;;;6.38;4.40;;;16.30;69.50;;;;;;5057459;28;20473;-75
2022/04/15 00:03:50;;;;;;;6.22;4.60;;;16.30;69.60;;;;;;5036456;28;20033;-74
2022/04/15 00:06:21;;;;;;;6.18;3.72;;;16.20;69.70;;;;;;5058643;28;20051;-74
2022/04/15 00:08:47;;;;;;;5.65;4.05;;;16.20;69.70;;;;;;5042443;28;20020;-73
2022/04/15 00:11:14;;;;;;;5.70;4.20;;;16.20;69.80;;;;;;5054500;28;20072;-74
2022/04/15 00:13:41;;;;;;;4.82;3.85;;;16.10;69.80;;;;;;5071429;28;20133;-74
2022/04/15 00:16:08;;;;;;;5.80;4.10;;;16.10;69.80;;;;;;5058611;28;20106;-76
2022/04/15 00:18:35;;;;;;;5.60;4.43;;;16.10;70.50;;;;;;5034500;28;20127;-75
2022/04/15 00:21:01;;;;;;;6.13;4.13;;;16.00;69.80;;;;;;5041832;28;20043;-74
2022/04/15 00:23:27;;;;;;;6.82;4.40;;;16.00;69.90;;;;;;5036897;28;20830;-74
2022/04/15 00:25:54;;;;;;;5.95;4.28;;;15.90;69.80;;;;;;5037759;28;20017;-74
2022/04/15 00:28:20;;;;;;;5.18;3.83;;;15.90;69.80;;;;;;5042061;28;20032;-75
2022/04/15 00:30:46;;;;;;;5.78;4.38;;;15.90;69.90;;;;;;5040993;28;20056;-74
2022/04/15 00:33:12;;;;;;;5.47;4.22;;;15.80;69.90;;;;;;5040274;28;20064;-74
2022/04/15 00:35:38;;;;;;;5.55;4.50;;;15.80;69.90;;;;;;5054312;28;20023;-74
2022/04/15 00:38:04;;;;;;;6.05;4.25;;;15.80;70.00;;;;;;5055084;28;20024;-74
2022/04/15 00:40:30;;;;;;;6.30;4.72;;;15.80;70.10;;;;;;5076675;28;20035;-74
2022/04/15 00:42:56;;;;;;;6.15;4.07;;;15.70;70.10;;;;;;5044842;28;20123;-74
2022/04/15 00:45:22;;;;;;;6.63;4.35;;;15.70;70.10;;;;;;5071534;28;20385;-74
2022/04/15 00:47:53;;;;;;;6.00;4.28;;;15.60;70.10;;;;;;5058580;28;20089;-75
2022/04/15 00:50:27;;;;;;;5.90;4.47;;;15.60;70.10;;;;;;5054074;28;20028;-75
2022/04/15 00:52:54;;;;;;;4.80;3.95;;;15.60;70.00;;;;;;5052310;28;20021;-74
2022/04/15 00:55:22;;;;;;;6.25;4.55;;;15.50;70.00;;;;;;5036293;28;20370;-75
2022/04/15 00:57:51;;;;;;;5.45;4.20;;;15.50;70.10;;;;;;5048278;28;20059;-73
2022/04/15 01:00:19;;;;;;;6.50;4.30;;;15.40;70.20;;;;;;5068101;28;20021;-75
2022/04/15 01:02:45;;;;;;;5.80;4.50;;;15.40;70.10;;;;;;5069441;28;20036;-76
2022/04/15 01:05:12;;;;;;;5.85;4.53;;;15.40;70.20;;;;;;5038517;28;20025;-75
2022/04/15 01:07:46;;;;;;;6.07;4.35;;;15.40;70.20;;;;;;5041546;28;20029;-75
2022/04/15 01:10:13;;;;;;;5.47;4.47;;;15.30;70.20;;;;;;5072892;28;20033;-77
2022/04/15 01:12:41;;;;;;;5.68;4.40;;;15.30;70.20;;;;;;5026830;28;20056;-76
2022/04/15 01:15:12;;;;;;;6.68;4.55;;;15.20;70.10;;;;;;5031071;28;20024;-76
2022/04/15 01:17:38;;;;;;;6.15;4.60;;;15.20;70.10;;;;;;5029682;28;20516;-75
2022/04/15 01:20:05;;;;;;;6.28;4.38;;;15.20;70.10;;;;;;5022358;28;20041;-76
2022/04/15 01:22:40;;;;;;;5.78;4.40;;;15.10;70.10;;;;;;5028037;28;20037;-76
2022/04/15 01:25:07;;;;;;;5.13;4.20;;;15.10;70.10;;;;;;5033259;28;20074;-76
2022/04/15 01:27:38;;;;;;;5.72;4.53;;;15.10;70.10;;;;;;5042843;28;20060;-75
2022/04/15 01:30:09;;;;;;;6.55;4.70;;;15.00;70.10;;;;;;5052966;28;20029;-75
2022/04/15 01:32:35;;;;;;;6.18;4.68;;;15.00;70.10;;;;;;5037697;28;20029;-75
2022/04/15 01:35:02;;;;;;;5.60;4.40;;;15.00;70.20;;;;;;5016711;28;20441;-75
2022/04/15 01:37:30;;;;;;;5.90;4.50;;;14.90;70.10;;;;;;5017863;28;20116;-75
2022/04/15 01:39:56;;;;;;;5.90;4.35;;;14.90;70.20;;;;;;5043181;28;20029;-74
2022/04/15 01:42:22;;;;;;;6.03;4.20;;;14.90;70.20;;;;;;5040787;28;20500;-75
2022/04/15 01:44:49;;;;;;;5.82;4.57;;;14.80;70.10;;;;;;5018187;28;20025;-76
2022/04/15 01:47:16;;;;;;;5.30;4.35;;;14.80;70.10;;;;;;5019417;28;20489;-76
2022/04/15 01:49:42;;;;;;;6.15;4.60;;;14.80;70.20;;;;;;5032776;28;20123;-75
2022/04/15 01:52:08;;;;;;;6.32;4.70;;;14.70;70.10;;;;;;5012878;28;20038;-75
2022/04/15 01:54:34;;;;;;;5.13;4.32;;;14.70;70.10;;;;;;5041615;28;20537;-75
2022/04/15 01:57:01;;;;;;;6.20;4.55;;;14.70;70.40;;;;;;5019117;28;20026;-76
2022/04/15 01:59:27;;;;;;;5.32;4.28;;;14.60;70.00;;;;;;5031797;28;20029;-75
2022/04/15 02:01:54;;;;;;;6.32;4.90;;;14.60;70.10;;;;;;5037036;28;20037;-74
2022/04/15 02:04:25;;;;;;;5.70;4.45;;;14.60;70.10;;;;;;5065987;28;20458;-75
2022/04/15 02:06:51;;;;;;;5.95;4.40;;;14.60;70.10;;;;;;5048452;28;20049;-75
2022/04/15 02:09:17;;;;;;;6.22;4.43;;;14.50;70.00;;;;;;5033263;28;20037;-76
2022/04/15 02:11:43;;;;;;;6.00;4.80;;;14.50;70.10;;;;;;5068124;28;20025;-75
2022/04/15 02:14:10;;;;;;;6.35;4.60;;;14.50;70.10;;;;;;5051549;28;20062;-75
2022/04/15 02:16:36;;;;;;;6.72;4.53;;;14.40;70.10;;;;;;5033466;28;20032;-75
2022/04/15 02:19:02;;;;;;;6.43;4.80;;;14.40;70.00;;;;;;5026613;28;20035;-76
2022/04/15 02:21:28;;;;;;;5.82;4.25;;;14.40;70.10;;;;;;5054874;28;20162;-75
2022/04/15 02:23:54;;;;;;;5.70;4.70;;;14.30;70.10;;;;;;5055639;28;20060;-77
2022/04/15 02:26:19;;;;;;;5.03;4.07;;;14.30;70.10;;;;;;5055899;28;20063;-74
2022/04/15 02:28:45;;;;;;;5.43;3.97;;;14.30;70.10;;;;;;5059711;28;20020;-74
2022/04/15 02:31:11;;;;;;;5.75;4.72;;;14.30;70.10;;;;;;5056964;28;20035;-74
2022/04/15 02:33:37;;;;;;;6.05;4.60;;;14.30;70.20;;;;;;5038483;28;20028;-74
2022/04/15 02:36:03;;;;;;;5.63;4.43;;;14.20;70.10;;;;;;5057951;28;20496;-74
2022/04/15 02:38:29;;;;;;;5.80;4.15;;;14.20;70.10;;;;;;5039172;28;20029;-75
2022/04/15 02:40:55;;;;;;;5.35;4.22;;;14.20;70.20;;;;;;5054337;28;20048;-74
2022/04/15 02:43:21;;;;;;;6.10;4.53;;;14.10;70.10;;;;;;5060366;28;20040;-75
2022/04/15 02:45:47;;;;;;;5.28;3.80;;;14.10;70.20;;;;;;5060992;28;20085;-75
2022/04/15 02:48:13;;;;;;;4.68;3.72;;;14.10;70.20;;;;;;5044943;28;20028;-74
2022/04/15 02:50:39;;;;;;;4.93;3.90;;;14.10;70.20;;;;;;5079773;28;20139;-75
2022/04/15 02:53:06;;;;;;;4.55;3.55;;;14.00;70.20;;;;;;5041473;28;20477;-75
2022/04/15 02:55:32;;;;;;;5.20;4.05;;;14.00;70.20;;;;;;5072822;28;20035;-75
2022/04/15 02:57:57;;;;;;;5.07;3.55;;;14.00;70.20;;;;;;5041910;28;20029;-76
2022/04/15 03:00:23;;;;;;;4.28;3.70;;;14.00;70.20;;;;;;5061518;28;20067;-75
2022/04/15 03:02:49;;;;;;;4.88;3.85;;;14.00;70.20;;;;;;5073131;28;20074;-76
2022/04/15 03:05:15;;;;;;;4.28;3.53;;;13.90;70.20;;;;;;5044868;28;20422;-76
2022/04/15 03:07:41;;;;;;;4.97;3.70;;;13.90;70.20;;;;;;5049092;28;20491;-75
2022/04/15 03:10:07;;;;;;;4.93;3.75;;;13.90;70.20;;;;;;5045922;28;20024;-75
2022/04/15 03:12:38;;;;;;;4.90;3.42;;;13.90;70.30;;;;;;5072267;28;20047;-75
2022/04/15 03:15:06;;;;;;;4.70;3.53;;;13.80;70.30;;;;;;5076412;28;20044;-76
2022/04/15 03:17:33;;;;;;;4.68;3.53;;;13.80;70.30;;;;;;5067557;28;20039;-76
2022/04/15 03:20:02;;;;;;;4.95;3.40;;;13.80;70.30;;;;;;5056218;28;20041;-74
2022/04/15 03:22:36;;;;;;;4.78;3.58;;;13.80;70.40;;;;;;5045815;28;20036;-75
2022/04/15 03:25:02;;;;;;;4.38;3.38;;;13.80;70.40;;;;;;5041616;28;20431;-76
2022/04/15 03:27:28;;;;;;;5.20;4.00;;;13.70;70.40;;;;;;5053576;28;20036;-75
2022/04/15 03:29:54;;;;;;;5.07;3.55;;;13.70;70.40;;;;;;5055107;28;20392;-76
2022/04/15 03:32:20;;;;;;;4.82;3.58;;;13.70;70.40;;;;;;5034608;28;20499;-76
2022/04/15 03:34:45;;;;;;;4.88;3.50;;;13.70;70.40;;;;;;5069934;28;20035;-75
2022/04/15 03:37:11;;;;;;;4.95;3.97;;;13.70;70.40;;;;;;5042038;28;20043;-75
2022/04/15 03:39:37;;;;;;;5.80;3.65;;;13.70;70.50;;;;;;5069296;28;20029;-75
2022/04/15 03:42:03;;;;;;;5.30;4.20;;;13.60;70.50;;;;;;5053286;28;20061;-76
2022/04/15 03:44:30;;;;;;;4.50;3.65;;;13.60;70.50;;;;;;5056622;28;20037;-75
2022/04/15 03:46:55;;;;;;;5.35;3.65;;;13.60;70.50;;;;;;5057307;28;20031;-76
2022/04/15 03:49:21;;;;;;;4.85;3.58;;;13.60;70.60;;;;;;5069466;28;20043;-75
2022/04/15 03:51:47;;;;;;;4.40;3.40;;;13.60;70.60;;;;;;5063810;28;20056;-75
2022/04/15 03:54:12;;;;;;;4.63;3.53;;;13.60;70.60;;;;;;5036962;28;20043;-75
2022/04/15 03:56:39;;;;;;;4.95;3.85;;;13.60;70.60;;;;;;5071775;28;20028;-78
2022/04/15 03:59:04;;;;;;;6.53;4.45;;;13.50;70.60;;;;;;5036719;28;20044;-77
2022/04/15 04:01:30;;;;;;;5.20;4.10;;;13.50;70.70;;;;;;5026330;28;20024;-75
2022/04/15 04:03:56;;;;;;;5.45;4.07;;;13.50;70.70;;;;;;5042673;28;20051;-75
2022/04/15 04:06:22;;;;;;;5.15;4.15;;;13.50;70.70;;;;;;5054384;28;20452;-75
2022/04/15 04:08:50;;;;;;;4.68;3.75;;;13.50;70.70;;;;;;5068095;28;20086;-76
2022/04/15 04:11:17;;;;;;;5.40;4.10;;;13.50;70.80;;;;;;5042868;28;20472;-75
2022/04/15 04:13:43;;;;;;;5.32;4.20;;;13.40;70.70;;;;;;5038040;28;20065;-76
2022/04/15 04:16:11;;;;;;;5.10;4.07;;;13.40;70.80;;;;;;5015933;28;20049;-75
2022/04/15 04:18:41;;;;;;;5.10;4.00;;;13.40;70.80;;;;;;5015075;28;20033;-75
2022/04/15 04:21:07;;;;;;;6.60;4.35;;;13.40;70.80;;;;;;5038094;28;20071;-76
2022/04/15 04:23:33;;;;;;;5.40;4.20;;;13.40;70.80;;;;;;5013015;28;20056;-76
2022/04/15 04:26:00;;;;;;;5.05;3.90;;;13.40;70.90;;;;;;5019469;28;20038;-76
2022/04/15 04:28:25;;;;;;;6.68;3.97;;;13.40;70.90;;;;;;5039479;28;20123;-75
2022/04/15 04:30:52;;;;;;;5.47;4.00;;;13.40;70.90;;;;;;5020390;28;20112;-75
2022/04/15 04:33:18;;;;;;;5.18;4.20;;;13.30;70.90;;;;;;5030957;28;20021;-76
2022/04/15 04:35:44;;;;;;;5.35;4.20;;;13.30;70.90;;;;;;5022187;28;20060;-77
2022/04/15 04:38:10;;;;;;;5.60;3.97;;;13.30;70.90;;;;;;5036965;28;20063;-75
2022/04/15 04:40:37;;;;;;;5.35;3.95;;;13.30;70.90;;;;;;5046827;28;20034;-76
2022/04/15 04:43:04;;;;;;;4.90;3.65;;;13.30;71.00;;;;;;5047720;28;20033;-76
2022/04/15 04:45:30;;;;;;;5.47;4.25;;;13.30;71.00;;;;;;5053813;28;20026;-75
2022/04/15 04:47:56;;;;;;;5.07;3.97;;;13.30;71.00;;;;;;5013412;28;20037;-75
2022/04/15 04:50:22;;;;;;;5.35;4.05;;;13.30;71.00;;;;;;5062400;28;20029;-77
2022/04/15 04:52:48;;;;;;;5.10;3.72;;;13.30;71.00;;;;;;5012539;28;20388;-77
2022/04/15 04:55:15;;;;;;;5.60;4.40;;;13.30;71.00;;;;;;5012329;28;20467;-77
2022/04/15 04:57:42;;;;;;;6.00;4.25;;;13.20;70.90;;;;;;5029175;28;20025;-75
2022/04/15 05:00:13;;;;;;;5.22;3.78;;;13.20;70.90;;;;;;5029675;28;20040;-76
2022/04/15 05:02:39;;;;;;;5.75;4.20;;;13.20;71.00;;;;;;5015646;28;20060;-76
2022/04/15 05:05:06;;;;;;;5.80;4.25;;;13.10;70.90;;;;;;5042782;28;20080;-76
2022/04/15 05:07:31;;;;;;;4.55;3.63;;;13.20;71.00;;;;;;5061444;28;20021;-76
2022/04/15 05:09:57;;;;;;;4.28;3.45;;;13.20;71.00;;;;;;5045241;28;20025;-75
2022/04/15 05:12:23;;;;;;;5.25;3.90;;;13.10;70.90;;;;;;5028338;28;20042;-75
2022/04/15 05:14:49;;;;;;;4.53;3.67;;;13.10;70.90;;;;;;5044334;28;20477;-75
2022/04/15 05:17:15;;;;;;;5.30;3.80;;;13.10;70.90;;;;;;5027189;28;20042;-75
2022/04/15 05:19:41;;;;;;;4.82;3.85;;;13.00;70.90;;;;;;5029638;28;20355;-77
2022/04/15 05:22:08;;;;;;;5.35;3.90;;;13.10;71.00;;;;;;5013997;28;20120;-75
2022/04/15 05:24:34;;;;;;;5.90;4.15;;;13.00;70.90;;;;;;5015722;28;20021;-76
2022/04/15 05:27:00;;;;;;;4.88;3.75;;;13.00;70.90;;;;;;5016977;28;20028;-75
2022/04/15 05:29:26;;;;;;;4.72;3.63;;;13.00;70.90;;;;;;5028972;28;20039;-76
2022/04/15 05:31:52;;;;;;;5.00;3.90;;;13.00;70.90;;;;;;5029864;28;20119;-73
2022/04/15 05:34:17;;;;;;;5.10;3.83;;;13.00;70.90;;;;;;5036078;28;20435;-75
2022/04/15 05:36:43;;;;;;;5.40;4.00;;;12.90;70.90;;;;;;5018174;28;20537;-74
2022/04/15 05:39:09;;;;;;;5.38;3.97;;;13.00;70.90;;;;;;5029028;28;20124;-75
2022/04/15 05:41:35;;;;;;;5.15;3.90;;;12.90;70.90;;;;;;5016752;28;20136;-74
2022/04/15 05:44:03;;;;;;;5.03;3.85;;;12.90;71.00;;;;;;5006255;28;20048;-75
2022/04/15 05:46:30;;;;;;;4.60;3.60;;;12.90;70.90;;;;;;5011273;28;20080;-74
2022/04/15 05:48:56;;;;;;;5.30;3.58;;;12.90;71.00;;;;;;5021221;28;20026;-75
2022/04/15 05:51:22;;;;;;;5.50;4.13;;;12.90;71.00;;;;;;5011934;28;20056;-74
2022/04/15 05:53:48;;;;;;;4.95;3.80;;;12.80;70.90;;;;;;5028556;28;20818;-75
2022/04/15 05:56:13;;;;;;;4.82;3.55;;;12.80;70.90;;;;;;5028626;28;20017;-75
2022/04/15 05:58:40;;;;;;;5.18;3.78;;;12.80;71.00;;;;;;5028073;28;20025;-76
2022/04/15 06:01:09;;;;;;;4.78;4.00;;;12.80;71.00;;;;;;5011959;28;20044;-74
2022/04/15 06:03:35;;;;;;;4.78;3.85;;;12.80;71.00;;;;;;5027891;28;20021;-75
2022/04/15 06:06:02;;;;;;;4.80;3.72;;;12.80;71.00;;;;;;5028333;28;20029;-74
2022/04/15 06:08:28;;;;;;;4.55;3.55;;;12.80;71.10;;;;;;5044983;28;20014;-75
2022/04/15 06:10:54;;;;;;;4.95;3.50;;;12.70;71.10;;;;;;5028033;28;20041;-75
2022/04/15 06:13:22;;;;;;;6.82;3.97;;;12.70;71.00;;;;;;5042199;28;20045;-76
2022/04/15 06:15:53;;;;;;;4.25;3.20;;;12.70;71.00;;;;;;5045709;28;20037;-75
2022/04/15 06:18:34;;;;;;;4.35;3.33;;;12.70;71.10;;;;;;5051592;28;20040;-74
2022/04/15 06:21:01;;;;;;;3.60;2.88;;;12.70;71.10;;;;;;5040873;28;20024;-75
2022/04/15 06:23:26;;;;;;;5.10;3.22;;;12.70;71.10;;;;;;5053203;28;20490;-75
2022/04/15 06:25:53;;;;;;;3.95;2.88;;;12.70;71.10;;;;;;5063910;28;20058;-73
2022/04/15 06:28:21;;;;;;;3.70;2.83;;;12.70;71.10;;;;;;5053604;28;20036;-74
2022/04/15 06:30:48;;;;;;;3.70;2.70;;;12.60;71.10;;;;;;5035223;28;20033;-74
2022/04/15 06:33:16;;;;;;;3.53;2.80;;;12.70;71.10;;;;;;5051399;28;20486;-75
2022/04/15 06:35:42;;;;;;;4.40;2.83;;;12.60;71.10;;;;;;5051225;28;20478;-76
2022/04/15 06:38:08;;;;;;;5.65;2.92;;;12.60;71.00;;;;;;5034987;28;20026;-76
2022/04/15 06:40:35;;;;;;;3.78;2.78;;;12.70;71.10;;;;;;5051533;28;20369;-75
2022/04/15 06:43:01;;;;;;;3.72;2.85;;;12.60;71.10;;;;;;5038988;28;20028;-74
2022/04/15 06:45:27;;;;;;;3.17;2.60;;;12.60;71.10;;;;;;5034690;28;20057;-75
2022/04/15 06:47:53;;;;;;;3.55;2.50;;;12.60;71.10;;;;;;5040124;28;20075;-75
2022/04/15 06:50:20;;;;;;;3.72;2.50;;;12.60;71.10;;;;;;5034679;28;20075;-75
2022/04/15 06:52:46;;;;;;;3.35;2.58;;;12.60;71.00;;;;;;5053969;28;20029;-74
2022/04/15 06:55:12;;;;;;;4.00;2.95;;;12.60;71.10;;;;;;5050792;28;20060;-74
2022/04/15 06:57:38;;;;;;;3.83;2.63;;;12.60;71.10;;;;;;5052403;28;20063;-76
2022/04/15 07:00:05;;;;;;;4.13;2.58;;;12.60;71.00;;;;;;5050336;28;20029;-74
2022/04/15 07:02:33;;;;;;;2.97;2.42;;;12.60;71.00;;;;;;5052340;28;20115;-75
2022/04/15 07:04:59;;;;;;;3.15;2.30;;;12.60;71.00;;;;;;5066611;28;20028;-74
2022/04/15 07:07:24;;;;;;;4.00;2.38;;;12.60;71.00;;;;;;5034557;28;20032;-74
2022/04/15 07:09:50;;;;;;;2.88;2.40;;;12.50;71.00;;;;;;5059803;28;20028;-74
2022/04/15 07:12:17;;;;;;;3.35;2.50;;;12.50;71.00;;;;;;5028358;28;20107;-75
2022/04/15 07:14:43;;;;;;;3.10;2.60;;;12.50;71.00;;;;;;5015730;28;20048;-74
2022/04/15 07:17:09;;;;;;;2.70;2.10;;;12.50;71.00;;;;;;5013641;28;20037;-75
2022/04/15 07:19:34;;;;;;;2.85;2.25;;;12.50;71.00;;;;;;5034890;28;20505;-75
2022/04/15 07:22:00;;;;;;;3.83;2.47;;;12.60;71.00;;;;;;5040261;28;20021;-76
2022/04/15 07:24:27;;;;;;;2.90;2.38;;;12.50;70.90;;;;;;5031344;28;20065;-75
2022/04/15 07:26:53;;;;;;;2.65;2.17;;;12.60;71.00;;;;;;4997842;28;20425;-74
2022/04/15 07:29:20;;;;;;;2.65;2.35;;;12.60;71.00;;;;;;5013613;28;20091;-74
2022/04/15 07:31:46;;;;;;;2.47;1.92;;;12.60;71.00;;;;;;5015038;28;20149;-74
2022/04/15 07:34:12;;;;;;;2.20;1.92;;;12.60;71.00;;;;;;5030409;28;20120;-74
2022/04/15 07:39:06;;;;;;;2.45;2.00;;;12.60;71.00;;;;;;5029818;28;20041;-75
2022/04/15 07:41:33;;;;;;;2.72;1.80;;;12.60;71.00;;;;;;5038344;28;20445;-75
2022/04/15 07:43:59;;;;;;;3.58;2.15;;;12.60;71.00;;;;;;5013736;28;20041;-74
2022/04/15 07:46:25;;;;;;;2.22;1.92;;;12.60;71.00;;;;;;5014691;28;20038;-73
2022/04/15 07:48:50;;;;;;;2.63;1.77;;;12.60;71.10;;;;;;5030058;28;20034;-75
2022/04/15 07:51:16;;;;;;;3.10;2.13;;;12.60;71.10;;;;;;5031419;28;20034;-76
2022/04/15 07:53:42;;;;;;;2.05;1.85;;;12.60;71.10;;;;;;5032379;28;20053;-77
2022/04/15 07:56:08;;;;;;;2.20;1.98;;;12.60;71.10;;;;;;5030980;28;20032;-75
2022/04/15 07:58:34;;;;;;;2.28;2.00;;;12.70;71.20;;;;;;5031383;28;20474;-75
2022/04/15 08:01:00;;;;;;;1.95;1.73;;;12.70;71.20;;;;;;5029572;28;20060;-73
2022/04/15 08:03:26;;;;;;;2.53;2.00;;;12.70;71.20;;;;;;5033374;28;20052;-74
2022/04/15 08:05:52;;;;;;;2.15;1.77;;;12.70;71.20;;;;;;4996823;28;20030;-75
2022/04/15 08:08:18;;;;;;;2.08;1.80;;;12.70;71.20;;;;;;5062484;28;20025;-74
2022/04/15 08:10:44;;;;;;;1.90;1.70;;;12.80;71.20;;;;;;5029700;28;20124;-76
2022/04/15 08:13:10;;;;;;;2.03;1.83;;;12.80;71.20;;;;;;5037997;28;20505;-74
2022/04/15 08:15:35;;;;;;;2.00;1.80;;;12.80;71.20;;;;;;5029880;28;20057;-74
2022/04/15 08:18:01;;;;;;;1.92;1.73;;;12.80;71.20;;;;;;5029037;28;20033;-74
2022/04/15 08:20:27;;;;;;;2.20;2.00;;;12.80;71.20;;;;;;5012551;28;20433;-74
2022/04/15 08:22:53;;;;;;;2.88;1.80;;;12.90;71.20;;;;;;5033478;28;20040;-74
2022/04/15 08:25:19;;;;;;;2.35;1.88;;;12.90;71.20;;;;;;5013467;28;20482;-74
2022/04/15 08:27:45;;;;;;;2.47;1.88;;;12.90;71.20;;;;;;5031479;28;20075;-76
2022/04/15 08:30:11;;;;;;;1.85;1.60;;;12.90;71.20;;;;;;5029112;28;20033;-73
2022/04/15 08:32:37;;;;;;;2.25;1.80;;;12.90;71.20;;;;;;5028595;28;20066;-75
2022/04/15 08:35:05;;;;;;;3.72;1.90;;;12.90;71.20;;;;;;5028934;28;20026;-72
2022/04/15 08:37:31;;;;;;;2.03;1.83;;;12.90;71.20;;;;;;5028845;28;20048;-74
2022/04/15 08:39:57;;;;;;;2.25;1.85;;;13.00;71.20;;;;;;5028991;28;20036;-75
2022/04/15 08:42:23;;;;;;;2.38;1.90;;;13.00;71.20;;;;;;5012823;28;20034;-73
2022/04/15 08:44:52;;;;;;;2.50;1.88;;;13.00;71.20;;;;;;5028255;28;20492;-76
2022/04/15 08:47:19;;;;;;;2.00;1.73;;;13.00;71.20;;;;;;5028412;28;20112;-74
2022/04/15 08:49:45;;;;;;;1.90;1.70;;;13.00;71.20;;;;;;5029041;28;20029;-74
2022/04/15 08:52:15;;;;;;;2.40;1.70;;;13.10;71.30;;;;;;5018026;28;20044;-73
2022/04/15 08:54:41;;;;;;;2.33;1.85;;;13.10;71.30;;;;;;5033245;28;20048;-74
2022/04/15 08:57:10;;;;;;;1.65;1.52;;;13.10;71.30;;;;;;5021021;28;20033;-74
2022/04/15 08:59:40;;;;;;;1.63;1.52;;;13.10;71.30;;;;;;5013983;28;20108;-74
2022/04/15 09:02:06;;;;;;;2.30;1.92;;;13.10;71.30;;;;;;5061611;28;20082;-74
2022/04/15 09:04:32;;;;;;;2.03;1.67;;;13.20;71.30;;;;;;5032945;28;20029;-74
2022/04/15 09:07:00;;;;;;;2.30;1.70;;;13.20;71.30;;;;;;5012671;28;20068;-74
2022/04/15 09:09:33;;;;;;;2.38;1.65;;;13.20;71.30;;;;;;5029123;28;20052;-75
2022/04/15 09:12:03;;;;;;;2.08;1.85;;;13.20;71.30;;;;;;5013189;28;20056;-74
2022/04/15 09:14:29;;;;;;;2.78;1.98;;;13.20;71.20;;;;;;5028745;28;20419;-74
2022/04/15 09:16:55;;;;;;;3.22;2.35;;;13.30;71.30;;;;;;5030576;28;20029;-75
2022/04/15 09:19:21;;;;;;;3.55;1.83;;;13.30;71.30;;;;;;5012136;28;20041;-74
2022/04/15 09:21:55;;;;;;;2.70;1.88;;;13.30;71.30;;;;;;5013807;28;20036;-75
2022/04/15 09:24:31;;;;;;;2.03;1.73;;;13.30;71.30;;;;;;5062215;28;20141;-75
2022/04/15 09:26:57;;;;;;;2.63;2.10;;;13.30;71.30;;;;;;5012406;28;20033;-75
2022/04/15 09:29:25;;;;;;;2.42;2.08;;;13.30;71.20;;;;;;5029695;28;20033;-74
2022/04/15 09:31:56;;;;;;;2.92;2.00;;;13.40;71.30;;;;;;5030878;28;20101;-76
2022/04/15 09:34:22;;;;;;;2.55;1.98;;;13.40;71.30;;;;;;5028729;28;20030;-76
2022/04/15 09:36:48;;;;;;;2.65;2.00;;;13.30;71.20;;;;;;5029130;28;20033;-75
2022/04/15 09:39:14;;;;;;;3.58;2.00;;;13.40;71.20;;;;;;5029986;28;20112;-75
2022/04/15 09:42:02;;;;;;;2.10;1.90;;;13.40;71.20;;;;;;5011688;28;20038;-76
2022/04/15 09:44:33;;;;;;;2.00;1.80;;;13.40;71.30;;;;;;5007635;28;20080;-76
2022/04/15 09:47:04;;;;;;;2.67;2.00;;;13.50;71.20;;;;;;5021602;28;20029;-76
2022/04/15 09:49:34;;;;;;;2.88;1.98;;;13.50;71.20;;;;;;5014649;28;20037;-75
2022/04/15 09:52:00;;;;;;;2.70;2.00;;;13.50;71.20;;;;;;5014990;28;20035;-76
2022/04/15 09:54:27;;;;;;;2.63;2.03;;;13.50;71.10;;;;;;4998944;28;20029;-75
2022/04/15 09:56:55;;;;;;;3.90;2.08;;;13.50;71.10;;;;;;5032599;28;20061;-75
2022/04/15 09:59:23;;;;;;;3.00;2.00;;;13.50;71.20;;;;;;5015413;28;20517;-74
2022/04/15 10:01:54;;;;;;;2.67;2.00;;;13.60;71.20;;;;;;5015003;28;20124;-76
2022/04/15 10:04:20;;;;;;;2.90;2.00;;;13.60;71.20;;;;;;5031862;28;20018;-74
2022/04/15 10:06:47;;;;;;;2.55;2.10;;;13.60;71.10;;;;;;5014708;28;20014;-75
2022/04/15 10:09:13;;;;;;;3.15;2.13;;;13.60;71.10;;;;;;5031687;28;20068;-75
2022/04/15 10:11:44;;;;;;;3.67;2.60;;;13.60;71.10;;;;;;5033041;28;20390;-75
2022/04/15 10:14:16;;;;;;;2.67;2.20;;;13.60;71.10;;;;;;5054373;28;20105;-75
2022/04/15 10:16:43;;;;;;;3.63;2.60;;;13.70;71.20;;;;;;5072405;28;20136;-75
2022/04/15 10:19:10;;;;;;;3.92;2.83;;;13.70;71.10;;;;;;5070590;28;20480;-75
2022/04/15 10:21:41;;;;;;;2.78;2.15;;;13.70;71.10;;;;;;5055080;28;20037;-75
2022/04/15 10:24:09;;;;;;;3.58;2.40;;;13.70;71.10;;;;;;5039437;28;20059;-75
2022/04/15 10:26:46;;;;;;;2.28;2.08;;;13.70;71.00;;;;;;5054737;28;20013;-77
2022/04/15 10:29:13;;;;;;;2.65;2.33;;;13.70;71.20;;;;;;5037720;28;20029;-75
2022/04/15 10:31:44;;;;;;;3.30;2.40;;;13.80;71.10;;;;;;5037578;28;20036;-75
2022/04/15 10:34:11;;;;;;;2.88;2.40;;;13.70;71.00;;;;;;5071092;28;20028;-74
2022/04/15 10:36:38;;;;;;;2.75;2.15;;;13.70;71.00;;;;;;5072473;28;20024;-76
2022/04/15 10:39:06;;;;;;;3.15;2.40;;;13.80;71.00;;;;;;5072415;28;20240;-75
2022/04/15 10:41:41;;;;;;;3.25;2.50;;;13.80;71.00;;;;;;5037909;28;20028;-75
2022/04/15 10:44:10;;;;;;;3.60;2.55;;;13.80;71.10;;;;;;5053827;28;20439;-75
2022/04/15 10:46:37;;;;;;;3.20;2.50;;;13.80;71.00;;;;;;5072048;28;20116;-74
2022/04/15 10:49:20;;;;;;;3.97;2.72;;;13.80;71.00;;;;;;5054449;28;20028;-75
2022/04/15 10:51:50;;;;;;;4.30;2.50;;;13.90;71.20;;;;;;5054590;28;20029;-75
2022/04/15 10:54:35;;;;;;;4.05;3.08;;;13.90;71.00;;;;;;5053902;28;20041;-75
2022/04/15 10:57:09;;;;;;;3.92;2.80;;;13.90;71.10;;;;;;5059440;28;20086;-75
2022/04/15 11:02:34;;;;;;;3.42;2.20;;;13.90;70.90;;;;;;5047867;28;20033;-73
2022/04/15 11:05:00;;;;;;;3.80;2.60;;;13.90;70.90;;;;;;5055827;28;20020;-75
2022/04/15 11:07:40;;;;;;;3.22;2.47;;;14.00;71.00;;;;;;5037327;28;20465;-75
2022/04/15 11:10:16;;;;;;;3.30;2.60;;;14.00;71.00;;;;;;5052547;28;20436;-74
2022/04/15 11:12:42;;;;;;;3.97;2.92;;;14.00;71.00;;;;;;5077604;28;20485;-73
2022/04/15 11:15:09;;;;;;;4.00;2.75;;;14.00;70.90;;;;;;5037407;28;20194;-73
2022/04/15 11:17:41;;;;;;;3.72;2.90;;;14.00;71.00;;;;;;5041710;28;20223;-73
2022/04/15 11:20:10;;;;;;;3.60;2.42;;;14.10;71.00;;;;;;5070591;28;20384;-73
2022/04/15 11:22:43;;;;;;;3.85;2.70;;;14.10;70.90;;;;;;5053154;28;20392;-73
2022/04/15 11:25:11;;;;;;;4.50;3.10;;;14.10;70.90;;;;;;5053087;28;20115;-74
2022/04/15 11:27:39;;;;;;;3.17;2.58;;;14.10;70.90;;;;;;5071349;28;20096;-73
2022/04/15 11:30:11;;;;;;;3.15;2.47;;;14.10;70.90;;;;;;5069841;28;20036;-72
2022/04/15 11:32:48;;;;;;;3.60;2.80;;;14.20;70.90;;;;;;5052853;28;20170;-73
2022/04/15 11:35:33;;;;;;;4.22;2.88;;;14.20;70.90;;;;;;5053384;28;20064;-74
2022/04/15 11:38:13;;;;;;;4.30;2.92;;;14.20;70.90;;;;;;5072703;28;20032;-75
2022/04/15 11:40:43;;;;;;;3.38;2.72;;;14.20;70.80;;;;;;5037243;28;20040;-76
2022/04/15 11:43:11;;;;;;;3.72;2.90;;;14.20;70.80;;;;;;5070196;28;20070;-75
2022/04/15 11:45:42;;;;;;;5.32;3.25;;;14.30;70.80;;;;;;5071199;28;20108;-74
2022/04/15 11:48:20;;;;;;;3.92;2.72;;;14.30;70.80;;;;;;5071264;28;20032;-75
2022/04/15 11:50:47;;;;;;;3.40;2.67;;;14.30;70.90;;;;;;5058609;28;20051;-74
2022/04/15 11:53:13;;;;;;;4.30;3.28;;;14.30;70.80;;;;;;5036604;28;20111;-75
2022/04/15 11:56:00;;;;;;;3.85;2.80;;;14.30;70.80;;;;;;5069022;28;20044;-75
2022/04/15 11:58:33;;;;;;;3.90;3.08;;;14.40;70.90;;;;;;5038978;28;20373;-75
2022/04/15 12:00:59;;;;;;;3.83;2.95;;;14.40;70.80;;;;;;5046084;28;20541;-74
2022/04/15 12:03:27;;;;;;;4.07;3.00;;;14.40;70.80;;;;;;5071536;28;20058;-74
2022/04/15 12:05:56;;;;;;;4.57;3.22;;;14.40;70.80;;;;;;5068620;28;20074;-76
2022/04/15 12:08:22;;;;;;;5.05;3.40;;;14.40;70.80;;;;;;5062441;28;20099;-73
2022/04/15 12:10:49;;;;;;;4.15;3.15;;;14.50;70.80;;;;;;5040399;28;20111;-74
2022/04/15 12:13:17;;;;;;;4.18;3.20;;;14.50;70.80;;;;;;5053941;28;20040;-74
2022/04/15 12:15:44;;;;;;;4.28;3.20;;;14.50;70.80;;;;;;5057389;28;20043;-74
2022/04/15 12:18:10;;;;;;;4.05;2.95;;;14.60;70.80;;;;;;5054903;28;20028;-74
2022/04/15 12:20:38;;;;;;;4.10;3.00;;;14.60;70.80;;;;;;5051575;28;20461;-75
2022/04/15 12:23:05;;;;;;;4.03;3.03;;;14.60;70.80;;;;;;5032721;28;20386;-74
2022/04/15 12:26:05;;;;;;;4.25;3.10;;;14.60;70.70;;;;;;5069757;28;20025;-74
2022/04/15 12:31:01;;;;;;;4.05;2.80;;;14.60;70.60;;;;;;5058397;28;20393;-74
2022/04/15 12:33:26;;;;;;;4.30;3.28;;;14.70;70.70;;;;;;5049504;28;20024;-74
2022/04/15 12:36:03;;;;;;;4.30;2.95;;;14.70;70.70;;;;;;5036300;28;20024;-74
2022/04/15 12:38:29;;;;;;;4.32;3.10;;;14.70;70.60;;;;;;5044261;28;20029;-75
2022/04/15 12:41:09;;;;;;;4.20;2.92;;;14.70;70.60;;;;;;5052833;28;20028;-73
2022/04/15 12:43:35;;;;;;;4.32;2.80;;;14.70;70.60;;;;;;5049512;28;20090;-75
2022/04/15 12:46:01;;;;;;;4.40;3.08;;;14.80;70.60;;;;;;5064569;28;20504;-75
2022/04/15 12:48:28;;;;;;;3.63;2.92;;;14.80;70.60;;;;;;5060010;28;20086;-75
2022/04/15 12:50:58;;;;;;;3.80;3.15;;;14.80;70.60;;;;;;5052283;28;20028;-73
2022/04/15 12:53:24;;;;;;;3.65;2.75;;;14.90;70.60;;;;;;5070096;28;20911;-77
2022/04/15 12:55:52;;;;;;;5.45;3.38;;;14.90;70.60;;;;;;5038605;28;20035;-74
2022/04/15 12:58:25;;;;;;;4.60;3.10;;;14.90;70.50;;;;;;5069718;28;20385;-74